Time;durP1;ratioP1;P1;durP2;ratioP2;P2;SDS_P1;SDS_P2;PMS_P1;PMS_P2;Temp;Humidity;BMP_temperature;BMP_pressure;BME280_temperature;BME280_humidity;BME280_pressure;Samples;Min_cycle;Max_cycle;Signal;HPM_P1;HPM_P2
2022/11/23 00:01:18;;;;;;;21.90;9.23;;;13.90;99.90;;;;;;4990014;28;25077;-73
2022/11/23 00:03:46;;;;;;;19.90;7.90;;;13.90;99.90;;;;;;4991721;28;25069;-75
2022/11/23 00:06:12;;;;;;;24.40;9.00;;;13.90;99.90;;;;;;4999813;28;25389;-72
2022/11/23 00:08:37;;;;;;;22.05;8.82;;;13.90;99.90;;;;;;5005790;28;25110;-74
2022/11/23 00:11:03;;;;;;;23.95;8.82;;;13.90;99.90;;;;;;5005376;28;25064;-73
2022/11/23 00:13:29;;;;;;;21.08;8.57;;;13.90;99.90;;;;;;4994547;28;25065;-72
2022/11/23 00:15:55;;;;;;;29.25;9.23;;;13.90;99.90;;;;;;4994614;28;25056;-73
2022/11/23 00:18:20;;;;;;;19.35;9.27;;;13.80;99.90;;;;;;4994137;28;25054;-72
2022/11/23 00:20:46;;;;;;;24.23;9.45;;;13.80;99.90;;;;;;4984479;28;25075;-71
2022/11/23 00:23:11;;;;;;;27.80;9.45;;;13.80;99.90;;;;;;4989050;28;25061;-74
2022/11/23 00:25:37;;;;;;;19.98;10.23;;;13.80;99.90;;;;;;4994901;28;25065;-72
2022/11/23 00:28:03;;;;;;;22.42;9.88;;;13.90;99.90;;;;;;4988368;28;25136;-74
2022/11/23 00:30:28;;;;;;;20.98;8.10;;;13.90;99.90;;;;;;4987752;28;25122;-74
2022/11/23 00:32:54;;;;;;;26.35;9.10;;;13.90;99.90;;;;;;4980971;28;25082;-71
2022/11/23 00:35:21;;;;;;;23.92;9.07;;;14.10;99.90;;;;;;4986754;28;25095;-72
2022/11/23 00:37:46;;;;;;;20.17;7.68;;;14.10;99.90;;;;;;4986025;28;25065;-74
2022/11/23 00:40:12;;;;;;;21.40;8.82;;;14.10;99.90;;;;;;5003948;28;25074;-72
2022/11/23 00:42:38;;;;;;;21.50;8.93;;;14.10;99.90;;;;;;4994248;28;25108;-74
2022/11/23 00:45:04;;;;;;;22.95;9.32;;;14.20;99.90;;;;;;4983340;28;25065;-74
2022/11/23 00:47:30;;;;;;;25.38;9.95;;;14.20;99.90;;;;;;4995456;28;25088;-72
2022/11/23 00:49:55;;;;;;;21.17;8.98;;;14.30;99.90;;;;;;4991425;28;25156;-72
2022/11/23 00:52:22;;;;;;;25.80;8.85;;;14.30;99.90;;;;;;4991361;28;25076;-72
2022/11/23 00:54:47;;;;;;;17.63;7.47;;;14.30;99.90;;;;;;5008996;28;25060;-72
2022/11/23 00:57:13;;;;;;;23.30;7.88;;;14.40;99.90;;;;;;4985606;28;25074;-73
2022/11/23 00:59:39;;;;;;;23.25;7.47;;;14.30;99.90;;;;;;4988665;28;25065;-73
2022/11/23 01:02:04;;;;;;;21.23;9.05;;;14.30;99.90;;;;;;4991960;28;25121;-72
2022/11/23 01:04:30;;;;;;;20.05;7.60;;;14.20;99.90;;;;;;4984054;28;25055;-72
2022/11/23 01:06:56;;;;;;;19.65;8.45;;;14.10;99.90;;;;;;4983820;28;25050;-75
2022/11/23 01:09:25;;;;;;;20.10;7.95;;;14.20;99.90;;;;;;4989925;28;25131;-72
2022/11/23 01:11:52;;;;;;;22.98;7.38;;;14.20;99.90;;;;;;4989323;28;25076;-72
2022/11/23 01:14:18;;;;;;;28.17;7.60;;;14.10;99.90;;;;;;4992678;28;25074;-73
2022/11/23 01:16:43;;;;;;;19.10;7.32;;;14.00;99.90;;;;;;4997430;28;25148;-72
2022/11/23 01:19:14;;;;;;;22.88;7.50;;;13.80;99.90;;;;;;4985097;28;25066;-72
2022/11/23 01:21:40;;;;;;;15.68;5.80;;;13.90;99.90;;;;;;4984644;28;25097;-73
2022/11/23 01:24:10;;;;;;;14.23;5.95;;;13.60;99.90;;;;;;4986767;28;25120;-72
2022/11/23 01:26:36;;;;;;;13.20;6.32;;;13.60;99.90;;;;;;4995774;28;25076;-75
2022/11/23 01:29:01;;;;;;;21.38;6.88;;;13.60;99.90;;;;;;4981885;28;25150;-72
2022/11/23 01:31:27;;;;;;;27.40;6.35;;;13.30;99.90;;;;;;4989642;28;25104;-73
2022/11/23 01:33:56;;;;;;;16.00;6.43;;;13.30;99.90;;;;;;4981850;28;25090;-72
2022/11/23 01:36:24;;;;;;;12.60;6.10;;;13.20;99.90;;;;;;4995135;28;25082;-72
2022/11/23 01:38:51;;;;;;;14.75;6.63;;;13.10;99.90;;;;;;4983839;28;25132;-74
2022/11/23 01:41:21;;;;;;;22.77;6.47;;;12.90;99.90;;;;;;4986224;28;25057;-73
2022/11/23 01:43:48;;;;;;;14.57;6.78;;;12.90;99.90;;;;;;4993090;28;25066;-73
2022/11/23 01:46:14;;;;;;;8.80;5.05;;;12.90;99.90;;;;;;4988018;28;25102;-72
2022/11/23 01:48:49;;;;;;;18.58;5.53;;;12.90;99.90;;;;;;4985601;28;25836;-73
2022/11/23 01:51:21;;;;;;;13.75;5.60;;;12.80;99.90;;;;;;4979021;28;25083;-74
2022/11/23 01:53:50;;;;;;;15.45;4.72;;;12.80;99.90;;;;;;4985073;28;25097;-73
2022/11/23 01:56:19;;;;;;;18.75;4.38;;;12.80;99.90;;;;;;5009901;28;25068;-74
2022/11/23 01:58:48;;;;;;;14.07;4.47;;;12.80;99.90;;;;;;4980169;28;25067;-74
2022/11/23 02:01:14;;;;;;;13.70;4.63;;;12.70;99.90;;;;;;4982002;28;25066;-74
2022/11/23 02:03:42;;;;;;;13.77;4.72;;;12.70;99.90;;;;;;4995925;28;25091;-74
2022/11/23 02:06:12;;;;;;;12.43;4.55;;;12.80;99.90;;;;;;4994528;28;25119;-74
2022/11/23 02:08:38;;;;;;;10.10;4.38;;;12.80;99.90;;;;;;4990815;28;25137;-74
2022/11/23 02:11:04;;;;;;;16.83;6.07;;;12.80;99.90;;;;;;5015081;28;25071;-74
2022/11/23 02:13:30;;;;;;;15.23;6.05;;;12.80;99.90;;;;;;4995737;28;25064;-74
2022/11/23 02:15:58;;;;;;;13.38;5.85;;;12.90;99.90;;;;;;4999002;28;25047;-75
2022/11/23 02:18:29;;;;;;;12.23;5.45;;;12.90;99.90;;;;;;5011001;28;25148;-75
2022/11/23 02:20:57;;;;;;;18.70;5.88;;;13.00;99.90;;;;;;4988488;28;25141;-74
2022/11/23 02:23:54;;;;;;;13.05;5.97;;;13.00;99.90;;;;;;4983703;28;25114;-73
2022/11/23 02:26:32;;;;;;;18.23;6.28;;;13.10;99.90;;;;;;4994865;28;25137;-75
2022/11/23 02:29:10;;;;;;;14.80;6.70;;;13.20;99.90;;;;;;5011466;28;25154;-74
2022/11/23 02:31:36;;;;;;;17.33;6.22;;;13.30;99.90;;;;;;4993145;28;25122;-75
2022/11/23 02:34:02;;;;;;;14.13;5.63;;;13.30;99.90;;;;;;4989216;28;25082;-75
2022/11/23 02:36:37;;;;;;;16.45;7.45;;;13.30;99.90;;;;;;4997360;28;25074;-73
2022/11/23 02:39:08;;;;;;;12.15;6.72;;;13.40;99.90;;;;;;4999538;28;25103;-72
2022/11/23 02:41:46;;;;;;;12.30;5.53;;;13.40;99.90;;;;;;4987537;28;25064;-72
2022/11/23 02:44:38;;;;;;;12.32;5.68;;;13.40;99.90;;;;;;4989451;28;25139;-72
2022/11/23 02:47:05;;;;;;;16.50;5.35;;;13.50;99.90;;;;;;4996441;28;25074;-72
2022/11/23 02:49:30;;;;;;;10.65;5.30;;;13.50;99.90;;;;;;4989191;28;25079;-71
2022/11/23 02:51:56;;;;;;;13.65;5.90;;;13.50;99.90;;;;;;5000181;28;25146;-71
2022/11/23 02:54:22;;;;;;;13.25;5.90;;;13.50;99.90;;;;;;4995185;28;25134;-72
2022/11/23 02:56:47;;;;;;;15.32;6.10;;;13.50;99.90;;;;;;4988638;28;25113;-72
2022/11/23 02:59:13;;;;;;;13.00;5.88;;;13.60;99.90;;;;;;4992891;28;25077;-72
2022/11/23 03:01:41;;;;;;;16.75;6.78;;;13.70;99.90;;;;;;4986890;28;25078;-75
2022/11/23 03:04:07;;;;;;;11.23;5.78;;;13.70;99.90;;;;;;4998666;28;25177;-73
2022/11/23 03:06:33;;;;;;;11.75;5.38;;;13.70;99.90;;;;;;4998577;28;25085;-74
2022/11/23 03:08:58;;;;;;;12.95;6.28;;;13.70;99.90;;;;;;4994656;28;25058;-72
2022/11/23 03:11:24;;;;;;;19.02;6.28;;;13.70;99.90;;;;;;4987883;28;25081;-73
2022/11/23 03:13:49;;;;;;;14.95;5.65;;;13.70;99.90;;;;;;4989660;28;25134;-73
2022/11/23 03:16:15;;;;;;;13.27;5.85;;;13.80;99.90;;;;;;5008005;28;25153;-73
2022/11/23 03:18:41;;;;;;;9.15;5.55;;;13.80;99.90;;;;;;4998811;28;25057;-72
2022/11/23 03:21:10;;;;;;;10.15;5.25;;;13.70;99.90;;;;;;5016606;28;25108;-72
2022/11/23 03:23:36;;;;;;;11.40;5.53;;;13.70;99.90;;;;;;4994220;28;25159;-73
2022/11/23 03:26:02;;;;;;;10.10;4.32;;;13.60;99.90;;;;;;5003125;28;25067;-73
2022/11/23 03:28:27;;;;;;;9.00;3.97;;;13.60;99.90;;;;;;5008011;28;25050;-72
2022/11/23 03:30:53;;;;;;;11.40;4.38;;;13.60;99.90;;;;;;5017576;28;25071;-75
2022/11/23 03:33:19;;;;;;;11.70;3.97;;;13.50;99.90;;;;;;5003469;28;25067;-74
2022/11/23 03:35:45;;;;;;;7.15;3.42;;;13.40;99.90;;;;;;5000738;28;25074;-75
2022/11/23 03:38:11;;;;;;;12.55;3.55;;;13.40;99.90;;;;;;5005972;28;25077;-71
2022/11/23 03:40:36;;;;;;;5.82;3.00;;;13.30;99.90;;;;;;4990738;28;25059;-73
2022/11/23 03:43:02;;;;;;;11.02;3.13;;;13.40;99.90;;;;;;4996898;28;25070;-72
2022/11/23 03:45:28;;;;;;;14.57;4.13;;;13.30;99.90;;;;;;4994703;28;25065;-72
2022/11/23 03:47:53;;;;;;;10.10;3.72;;;13.20;99.90;;;;;;4981266;28;25120;-72
2022/11/23 03:50:19;;;;;;;10.00;3.25;;;13.10;99.90;;;;;;4983495;28;25156;-73
2022/11/23 03:52:47;;;;;;;5.68;3.22;;;13.10;99.90;;;;;;4989164;28;25115;-74
2022/11/23 03:55:12;;;;;;;10.00;3.45;;;13.00;99.90;;;;;;4987440;28;25055;-76
2022/11/23 03:57:38;;;;;;;9.85;4.55;;;13.00;99.90;;;;;;5003393;28;25148;-75
2022/11/23 04:00:04;;;;;;;10.52;3.55;;;12.90;99.90;;;;;;4991678;28;25077;-73
2022/11/23 04:02:30;;;;;;;15.68;4.05;;;12.90;99.90;;;;;;4994518;28;25139;-73
2022/11/23 04:04:55;;;;;;;9.77;4.13;;;12.90;99.90;;;;;;5002086;28;25138;-74
2022/11/23 04:07:23;;;;;;;11.40;4.50;;;12.80;99.90;;;;;;4988050;28;25083;-72
2022/11/23 04:09:49;;;;;;;11.48;4.18;;;12.70;99.90;;;;;;4996011;28;25111;-74
2022/11/23 04:12:15;;;;;;;8.30;3.55;;;12.70;99.90;;;;;;5011646;28;25164;-74
2022/11/23 04:14:40;;;;;;;11.82;4.07;;;12.80;99.90;;;;;;4984012;28;25061;-75
2022/11/23 04:17:06;;;;;;;12.05;3.30;;;12.80;99.90;;;;;;4992538;28;25139;-74
2022/11/23 04:19:31;;;;;;;11.20;4.03;;;12.70;99.90;;;;;;4997185;28;25063;-73
2022/11/23 04:21:57;;;;;;;13.85;4.18;;;12.60;99.90;;;;;;4990413;28;25145;-75
2022/11/23 04:24:23;;;;;;;14.80;3.20;;;12.70;99.90;;;;;;4988712;28;25148;-74
2022/11/23 04:26:48;;;;;;;15.68;4.32;;;12.60;99.90;;;;;;4989191;28;25084;-74
2022/11/23 04:29:14;;;;;;;12.85;3.80;;;12.60;99.90;;;;;;4990551;28;25123;-75
2022/11/23 04:31:39;;;;;;;16.02;3.55;;;12.70;99.90;;;;;;4983273;28;25070;-75
2022/11/23 04:34:05;;;;;;;14.98;4.30;;;12.60;99.90;;;;;;4977771;28;25110;-74
2022/11/23 04:36:31;;;;;;;13.02;4.47;;;12.60;99.90;;;;;;4995372;28;25058;-74
2022/11/23 04:38:56;;;;;;;14.48;4.80;;;12.60;99.90;;;;;;4984426;28;25102;-73
2022/11/23 04:41:23;;;;;;;14.10;5.13;;;12.50;99.90;;;;;;4993453;28;25082;-74
2022/11/23 04:43:49;;;;;;;15.50;4.65;;;12.40;99.90;;;;;;4987558;28;25054;-74
2022/11/23 04:46:14;;;;;;;7.35;3.60;;;12.40;99.90;;;;;;4994209;28;25058;-74
2022/11/23 04:48:40;;;;;;;13.93;3.97;;;12.30;99.90;;;;;;4985592;28;25053;-75
2022/11/23 04:51:06;;;;;;;10.48;3.97;;;12.20;99.90;;;;;;4980531;28;25111;-74
2022/11/23 04:53:32;;;;;;;13.98;3.90;;;12.10;99.90;;;;;;4985385;28;25061;-74
2022/11/23 04:55:57;;;;;;;15.07;4.55;;;12.10;99.90;;;;;;4982318;28;25058;-73
2022/11/23 04:58:23;;;;;;;26.17;4.20;;;12.10;99.90;;;;;;4943856;28;1145069;-74
2022/11/23 05:00:49;;;;;;;10.98;3.85;;;12.00;99.90;;;;;;4999849;28;25046;-74
2022/11/23 05:03:15;;;;;;;11.68;4.50;;;12.00;99.90;;;;;;4995265;28;25182;-73
2022/11/23 05:05:41;;;;;;;13.60;4.10;;;11.90;99.90;;;;;;4994650;28;25138;-75
2022/11/23 05:08:07;;;;;;;13.40;4.18;;;11.90;99.90;;;;;;4978075;28;25147;-75
2022/11/23 05:10:33;;;;;;;14.57;4.40;;;11.80;99.90;;;;;;4987189;28;25209;-76
2022/11/23 05:12:59;;;;;;;17.45;4.43;;;11.60;99.90;;;;;;4990399;28;25061;-74
2022/11/23 05:15:24;;;;;;;11.65;4.13;;;11.60;99.90;;;;;;4992965;28;25060;-74
2022/11/23 05:17:50;;;;;;;16.23;4.55;;;11.50;99.90;;;;;;4992829;28;25086;-74
2022/11/23 05:20:16;;;;;;;10.75;4.10;;;11.50;99.90;;;;;;4997628;28;25063;-75
2022/11/23 05:22:41;;;;;;;13.82;4.15;;;11.60;99.90;;;;;;5011402;28;25170;-76
2022/11/23 05:25:07;;;;;;;10.25;4.47;;;11.50;99.90;;;;;;4995936;28;25059;-74
2022/11/23 05:27:34;;;;;;;18.40;4.70;;;11.50;99.90;;;;;;4986566;28;25100;-74
2022/11/23 05:30:00;;;;;;;15.38;3.88;;;11.40;99.90;;;;;;4985379;28;25074;-73
2022/11/23 05:32:26;;;;;;;12.25;4.05;;;11.40;99.90;;;;;;4990299;28;25082;-75
2022/11/23 05:34:52;;;;;;;10.65;3.75;;;11.40;99.90;;;;;;4994479;28;25077;-74
2022/11/23 05:37:17;;;;;;;8.30;3.72;;;11.50;99.90;;;;;;4991211;28;25161;-74
2022/11/23 05:39:43;;;;;;;13.13;3.80;;;11.40;99.90;;;;;;4986975;28;25135;-73
2022/11/23 05:42:09;;;;;;;8.75;3.28;;;11.30;99.90;;;;;;4989688;28;25143;-73
2022/11/23 05:44:35;;;;;;;10.40;4.03;;;11.40;99.90;;;;;;4990219;28;25063;-74
2022/11/23 05:47:00;;;;;;;15.82;3.65;;;11.40;99.90;;;;;;4993739;28;25115;-75
2022/11/23 05:49:26;;;;;;;11.27;3.65;;;11.30;99.90;;;;;;5003873;28;25135;-75
2022/11/23 05:51:51;;;;;;;9.65;2.80;;;11.20;99.90;;;;;;4992926;28;25108;-74
2022/11/23 05:54:17;;;;;;;7.00;2.47;;;11.20;99.90;;;;;;4994888;28;25075;-74
2022/11/23 05:56:43;;;;;;;10.32;2.63;;;11.20;99.90;;;;;;4996405;28;25143;-74
2022/11/23 05:59:10;;;;;;;9.98;3.20;;;11.20;99.90;;;;;;4992402;28;25084;-73
2022/11/23 06:01:35;;;;;;;15.65;3.50;;;11.20;99.90;;;;;;4984544;28;25117;-73
2022/11/23 06:04:01;;;;;;;10.32;3.05;;;11.20;99.90;;;;;;4990093;28;25141;-74
2022/11/23 06:06:27;;;;;;;9.45;3.63;;;11.20;99.90;;;;;;4988411;28;25072;-74
2022/11/23 06:08:52;;;;;;;15.80;3.47;;;11.10;99.90;;;;;;4987863;28;25071;-75
2022/11/23 06:11:18;;;;;;;15.60;3.63;;;10.90;99.90;;;;;;4992865;28;25078;-73
2022/11/23 06:13:46;;;;;;;10.30;2.60;;;10.90;99.90;;;;;;4996784;28;25062;-74
2022/11/23 06:16:12;;;;;;;15.52;3.38;;;10.90;99.90;;;;;;4990239;28;25050;-74
2022/11/23 06:18:38;;;;;;;19.67;3.72;;;10.70;99.90;;;;;;4990897;28;25135;-74
2022/11/23 06:21:03;;;;;;;6.75;2.55;;;10.70;99.90;;;;;;4988987;28;25129;-73
2022/11/23 06:23:29;;;;;;;19.27;3.97;;;10.60;99.90;;;;;;4993010;28;25130;-73
2022/11/23 06:25:58;;;;;;;18.42;2.67;;;10.70;99.90;;;;;;4991424;28;25141;-74
2022/11/23 06:28:24;;;;;;;9.80;2.47;;;10.60;99.90;;;;;;4988463;28;25145;-74
2022/11/23 06:30:49;;;;;;;7.55;2.38;;;10.70;99.90;;;;;;4986479;28;25108;-73
2022/11/23 06:33:15;;;;;;;9.05;2.30;;;10.60;99.90;;;;;;4994350;28;25046;-73
2022/11/23 06:35:40;;;;;;;14.63;2.55;;;10.50;99.90;;;;;;4988886;28;25066;-75
2022/11/23 06:38:06;;;;;;;15.05;3.22;;;10.60;99.90;;;;;;4999132;28;25053;-74
2022/11/23 06:40:32;;;;;;;11.77;2.42;;;10.50;99.90;;;;;;4984657;28;25063;-75
2022/11/23 06:43:00;;;;;;;12.75;2.30;;;10.60;99.90;;;;;;4986727;28;25065;-73
2022/11/23 06:45:26;;;;;;;11.05;2.55;;;10.60;99.90;;;;;;4993434;28;25137;-73
2022/11/23 06:47:55;;;;;;;22.58;2.80;;;10.60;99.90;;;;;;4992559;28;25068;-73
2022/11/23 06:50:21;;;;;;;15.60;2.55;;;10.60;99.90;;;;;;5001665;28;25080;-72
2022/11/23 06:52:47;;;;;;;10.48;2.35;;;10.60;99.90;;;;;;4986567;28;25070;-74
2022/11/23 06:55:12;;;;;;;15.75;3.17;;;10.70;99.90;;;;;;4988476;28;25061;-74
2022/11/23 06:57:38;;;;;;;14.05;2.47;;;10.80;99.90;;;;;;4992207;28;25064;-76
2022/11/23 07:00:04;;;;;;;15.45;3.50;;;10.80;99.90;;;;;;4999050;28;25065;-72
2022/11/23 07:02:30;;;;;;;11.88;2.53;;;10.70;99.90;;;;;;4998666;28;25071;-73
2022/11/23 07:04:55;;;;;;;11.63;2.35;;;10.80;99.90;;;;;;4989583;28;25104;-72
2022/11/23 07:07:21;;;;;;;17.63;2.45;;;10.90;99.90;;;;;;4989550;28;25065;-74
2022/11/23 07:09:46;;;;;;;18.67;2.65;;;11.00;99.90;;;;;;4993036;28;25068;-72
2022/11/23 07:12:12;;;;;;;14.50;2.58;;;11.00;99.90;;;;;;4989198;28;25095;-75
2022/11/23 07:14:38;;;;;;;9.80;2.25;;;11.00;99.90;;;;;;4996099;28;25051;-73
2022/11/23 07:17:04;;;;;;;9.38;2.50;;;11.00;99.90;;;;;;4983966;28;25103;-74
2022/11/23 07:19:29;;;;;;;13.65;2.55;;;11.00;99.90;;;;;;4992140;28;25159;-72
2022/11/23 07:21:55;;;;;;;10.05;3.97;;;11.10;99.90;;;;;;4990547;28;25110;-72
2022/11/23 07:24:21;;;;;;;11.50;2.63;;;11.10;99.90;;;;;;4984399;28;25064;-74
2022/11/23 07:26:46;;;;;;;17.30;2.55;;;11.10;99.90;;;;;;5002202;28;25066;-76
2022/11/23 07:29:12;;;;;;;12.73;3.10;;;11.20;99.90;;;;;;4987197;28;25144;-73
2022/11/23 07:31:38;;;;;;;14.38;2.65;;;11.20;99.90;;;;;;4994911;28;25100;-73
2022/11/23 07:34:04;;;;;;;10.15;1.85;;;11.20;99.90;;;;;;4994165;28;25091;-73
2022/11/23 07:36:29;;;;;;;9.30;2.22;;;11.20;99.90;;;;;;4987212;28;25076;-77
2022/11/23 07:38:55;;;;;;;11.43;2.83;;;11.20;99.90;;;;;;4992679;28;25087;-74
2022/11/23 07:41:21;;;;;;;17.88;2.97;;;11.20;99.90;;;;;;4992637;28;25069;-73
2022/11/23 07:43:47;;;;;;;10.52;2.00;;;11.30;99.90;;;;;;4988940;28;25056;-76
2022/11/23 07:46:12;;;;;;;14.65;2.38;;;11.40;99.90;;;;;;4996873;28;25059;-73
2022/11/23 07:48:38;;;;;;;17.75;3.13;;;11.50;99.90;;;;;;5000003;28;25082;-73
2022/11/23 07:51:03;;;;;;;11.13;2.20;;;11.50;99.90;;;;;;5006710;28;25086;-73
2022/11/23 07:53:29;;;;;;;14.65;3.22;;;11.50;99.90;;;;;;4989537;28;25137;-75
2022/11/23 07:55:57;;;;;;;27.38;3.35;;;11.50;99.90;;;;;;4988274;28;25068;-77
2022/11/23 07:58:23;;;;;;;15.05;2.40;;;11.60;99.90;;;;;;4986026;28;25055;-72
2022/11/23 08:00:48;;;;;;;21.52;2.80;;;11.70;99.90;;;;;;4996790;28;25064;-73
2022/11/23 08:03:14;;;;;;;11.25;2.58;;;11.70;99.90;;;;;;4996770;28;25126;-75
2022/11/23 08:05:39;;;;;;;17.60;3.38;;;11.70;99.90;;;;;;5000992;28;25152;-75
2022/11/23 08:08:05;;;;;;;16.02;2.20;;;11.70;99.90;;;;;;5008040;28;25068;-74
2022/11/23 08:10:31;;;;;;;14.60;3.20;;;11.80;99.90;;;;;;4988642;28;25078;-75
2022/11/23 08:12:58;;;;;;;16.65;2.53;;;11.70;99.90;;;;;;5006873;28;25143;-76
2022/11/23 08:15:26;;;;;;;8.13;2.22;;;11.70;99.90;;;;;;4986901;28;25077;-73
2022/11/23 08:17:56;;;;;;;16.23;2.40;;;11.70;99.90;;;;;;4993405;28;25100;-75
2022/11/23 08:20:22;;;;;;;19.60;2.65;;;11.70;99.90;;;;;;4985264;28;25070;-73
2022/11/23 08:22:48;;;;;;;14.63;2.50;;;11.80;99.90;;;;;;4995115;28;25060;-73
2022/11/23 08:25:14;;;;;;;13.75;2.75;;;11.60;99.90;;;;;;4987199;28;25065;-76
2022/11/23 08:27:39;;;;;;;12.00;2.28;;;11.60;99.90;;;;;;4985058;28;25079;-72
2022/11/23 08:30:06;;;;;;;3.63;1.95;;;11.40;99.90;;;;;;4985199;28;25092;-74
2022/11/23 08:32:31;;;;;;;9.88;3.20;;;11.40;99.90;;;;;;4987807;28;25072;-75
2022/11/23 08:34:57;;;;;;;11.38;3.05;;;11.30;99.90;;;;;;4986935;28;25117;-77
2022/11/23 08:37:23;;;;;;;10.55;2.42;;;11.30;99.90;;;;;;4994731;28;25052;-75
2022/11/23 08:39:48;;;;;;;17.75;3.53;;;11.20;99.90;;;;;;4985746;28;25070;-73
2022/11/23 08:42:14;;;;;;;12.68;2.60;;;11.10;99.90;;;;;;4985902;28;25078;-75
2022/11/23 08:44:39;;;;;;;14.32;2.78;;;11.00;99.90;;;;;;4986677;28;25060;-74
2022/11/23 08:47:05;;;;;;;11.60;2.45;;;10.90;99.90;;;;;;4987914;28;25090;-76
2022/11/23 08:49:31;;;;;;;12.65;2.30;;;10.80;99.90;;;;;;4989570;28;25101;-75
2022/11/23 08:51:57;;;;;;;12.13;3.05;;;10.70;99.90;;;;;;4993748;28;25124;-75
2022/11/23 08:54:23;;;;;;;11.35;2.13;;;10.70;99.90;;;;;;4984390;28;25110;-74
2022/11/23 08:56:50;;;;;;;9.43;2.13;;;10.60;99.90;;;;;;4980769;28;25072;-74
2022/11/23 08:59:16;;;;;;;16.52;2.63;;;10.50;99.90;;;;;;4994473;28;25093;-75
2022/11/23 09:01:43;;;;;;;8.80;2.60;;;10.40;99.90;;;;;;4992687;28;25101;-74
2022/11/23 09:04:08;;;;;;;16.40;2.63;;;10.30;99.90;;;;;;4998526;28;25106;-76
2022/11/23 09:06:34;;;;;;;12.02;2.38;;;10.20;99.90;;;;;;5007100;28;25121;-75
2022/11/23 09:09:00;;;;;;;11.73;1.90;;;10.20;99.90;;;;;;4997644;28;25061;-74
2022/11/23 09:11:26;;;;;;;10.73;2.33;;;10.10;99.90;;;;;;5008016;28;25080;-74
2022/11/23 09:13:52;;;;;;;16.38;3.30;;;10.00;99.90;;;;;;4995266;28;25079;-73
2022/11/23 09:16:17;;;;;;;14.88;2.55;;;10.00;99.90;;;;;;4988547;28;25081;-74
2022/11/23 09:18:43;;;;;;;15.35;2.10;;;10.00;99.90;;;;;;4989588;28;25071;-73
2022/11/23 09:21:09;;;;;;;18.45;2.38;;;9.90;99.90;;;;;;4989852;28;24881;-74
2022/11/23 09:23:35;;;;;;;19.92;2.83;;;9.90;99.90;;;;;;5001202;28;25059;-75
2022/11/23 09:26:02;;;;;;;10.63;2.47;;;9.80;99.90;;;;;;4996339;28;25048;-74
2022/11/23 09:28:28;;;;;;;13.63;2.55;;;9.80;99.90;;;;;;4984231;28;24816;-76
2022/11/23 09:30:55;;;;;;;10.77;2.85;;;9.80;99.90;;;;;;4982007;28;25149;-77
2022/11/23 09:33:22;;;;;;;13.02;2.83;;;9.80;99.90;;;;;;4985129;28;25083;-74
2022/11/23 09:36:01;;;;;;;8.82;2.95;;;9.80;99.90;;;;;;4983887;28;25104;-74
2022/11/23 09:38:27;;;;;;;10.75;2.90;;;9.80;99.90;;;;;;4996578;28;25106;-75
2022/11/23 09:41:20;;;;;;;7.30;3.15;;;9.70;99.90;;;;;;4984143;28;25174;-74
2022/11/23 09:43:48;;;;;;;12.68;3.58;;;9.70;99.90;;;;;;4988742;28;25080;-74
2022/11/23 09:46:30;;;;;;;14.75;3.42;;;9.70;99.90;;;;;;4995616;28;25108;-74
2022/11/23 09:49:16;;;;;;;25.83;3.67;;;9.70;99.90;;;;;;5003379;28;25056;-75
2022/11/23 09:51:43;;;;;;;12.65;2.28;;;9.70;99.90;;;;;;4989842;28;25065;-74
2022/11/23 09:54:20;;;;;;;13.85;2.65;;;9.70;99.90;;;;;;4989576;28;25072;-77
2022/11/23 09:56:50;;;;;;;7.32;1.92;;;9.70;99.90;;;;;;4987595;28;25084;-73
2022/11/23 09:59:30;;;;;;;9.82;2.17;;;9.70;99.90;;;;;;4983472;28;25066;-75
2022/11/23 10:01:59;;;;;;;10.70;2.80;;;9.70;99.90;;;;;;4987467;28;25052;-76
2022/11/23 10:04:28;;;;;;;11.73;3.03;;;9.70;99.90;;;;;;4985306;28;25097;-73
2022/11/23 10:06:57;;;;;;;6.93;2.38;;;9.60;99.90;;;;;;4985909;28;25067;-75
2022/11/23 10:09:50;;;;;;;11.07;2.88;;;9.60;99.90;;;;;;4991516;28;25062;-73
2022/11/23 10:12:28;;;;;;;11.00;2.50;;;9.60;99.90;;;;;;4983544;28;25111;-74
2022/11/23 10:15:12;;;;;;;13.45;3.08;;;9.70;99.90;;;;;;4990283;28;25157;-74
2022/11/23 10:18:03;;;;;;;10.68;2.90;;;9.50;99.90;;;;;;4983334;28;25138;-73
2022/11/23 10:20:41;;;;;;;18.52;2.92;;;9.50;99.90;;;;;;4988751;28;25053;-73
2022/11/23 10:23:26;;;;;;;8.18;2.22;;;9.50;99.90;;;;;;4984763;28;25044;-74
2022/11/23 10:25:52;;;;;;;10.73;2.67;;;9.50;99.90;;;;;;4983289;28;25051;-74
2022/11/23 10:28:20;;;;;;;12.40;2.75;;;9.50;99.90;;;;;;4977582;28;25132;-74
2022/11/23 10:31:12;;;;;;;5.28;2.25;;;9.50;99.90;;;;;;4984523;28;25060;-75
2022/11/23 10:33:51;;;;;;;15.20;2.72;;;9.40;99.90;;;;;;4974595;28;25067;-74
2022/11/23 10:36:17;;;;;;;12.57;2.95;;;9.40;99.90;;;;;;4987653;28;25078;-75
2022/11/23 10:38:44;;;;;;;14.98;2.42;;;9.30;99.90;;;;;;4984664;28;25142;-75
2022/11/23 10:41:15;;;;;;;7.88;2.20;;;9.30;99.90;;;;;;4985012;28;25105;-75
2022/11/23 10:43:47;;;;;;;7.60;2.03;;;9.30;99.90;;;;;;4987428;28;25050;-74
2022/11/23 10:46:37;;;;;;;13.75;2.40;;;9.30;99.90;;;;;;4987501;28;25047;-74
2022/11/23 10:49:25;;;;;;;10.35;2.22;;;9.40;99.90;;;;;;4989459;28;25081;-75
2022/11/23 10:52:04;;;;;;;32.75;3.38;;;9.40;99.90;;;;;;4991961;28;25094;-75
2022/11/23 10:54:39;;;;;;;6.75;2.10;;;9.50;99.90;;;;;;4985108;28;25083;-73
2022/11/23 10:57:32;;;;;;;10.73;1.83;;;9.60;99.90;;;;;;4983088;28;25106;-73
2022/11/23 11:00:03;;;;;;;19.20;2.55;;;9.90;99.90;;;;;;4989869;28;25066;-73
2022/11/23 11:02:50;;;;;;;10.45;2.10;;;9.80;99.90;;;;;;4988962;28;25126;-75
2022/11/23 11:05:29;;;;;;;8.55;2.08;;;9.90;99.90;;;;;;4981344;28;25070;-74
2022/11/23 11:07:58;;;;;;;8.55;2.05;;;10.20;99.90;;;;;;4988479;28;25075;-74
2022/11/23 11:10:42;;;;;;;12.27;2.63;;;10.00;99.90;;;;;;4989533;28;25083;-74
2022/11/23 11:13:31;;;;;;;10.88;3.00;;;10.10;99.90;;;;;;4979652;28;25069;-74
2022/11/23 11:16:05;;;;;;;6.43;2.10;;;10.30;99.90;;;;;;4989841;28;25099;-74
2022/11/23 11:18:34;;;;;;;15.80;2.15;;;10.30;99.90;;;;;;4987064;28;25062;-75
2022/11/23 11:21:07;;;;;;;7.80;2.10;;;10.20;99.90;;;;;;4986624;28;26169;-74
2022/11/23 11:23:37;;;;;;;12.48;2.97;;;10.40;99.90;;;;;;4986421;28;25073;-72
2022/11/23 11:26:10;;;;;;;7.10;1.92;;;10.30;99.90;;;;;;4997085;28;25075;-76
2022/11/23 11:28:43;;;;;;;10.85;2.45;;;10.40;99.90;;;;;;4979442;28;25060;-74
2022/11/23 11:31:17;;;;;;;11.05;1.85;;;10.50;99.90;;;;;;4997308;28;25070;-74
2022/11/23 11:34:00;;;;;;;15.10;2.35;;;10.40;99.90;;;;;;4985170;28;25054;-73
2022/11/23 11:36:29;;;;;;;;;;;10.60;99.90;;;;;;4991553;28;25054;-74
2022/11/23 11:38:58;;;;;;;8.82;1.92;;;10.70;99.90;;;;;;4984138;28;24088;-71
2022/11/23 11:41:24;;;;;;;5.07;1.52;;;10.90;99.90;;;;;;4991922;28;25077;-73
2022/11/23 11:44:14;;;;;;;10.13;1.80;;;10.80;99.90;;;;;;4987266;28;25056;-73
2022/11/23 11:46:45;;;;;;;6.03;1.80;;;11.10;99.90;;;;;;4981725;28;25096;-74
2022/11/23 11:49:11;;;;;;;10.52;2.08;;;11.20;99.90;;;;;;4978608;28;25046;-73
2022/11/23 11:51:45;;;;;;;16.55;2.20;;;11.10;99.90;;;;;;4992424;28;25069;-73
2022/11/23 11:54:42;;;;;;;13.88;2.00;;;11.20;99.90;;;;;;4983472;28;25061;-73
2022/11/23 11:57:22;;;;;;;6.80;1.55;;;11.30;99.90;;;;;;4988304;28;25145;-74
2022/11/23 11:59:52;;;;;;;9.25;1.98;;;11.30;99.90;;;;;;4979343;28;25141;-75
2022/11/23 12:02:26;;;;;;;8.88;2.00;;;11.40;99.90;;;;;;4987807;28;25091;-75
2022/11/23 12:05:11;;;;;;;5.85;1.20;;;11.50;99.90;;;;;;4989776;28;25052;-74
2022/11/23 12:07:44;;;;;;;8.32;1.65;;;11.40;99.90;;;;;;4995147;28;25083;-73
2022/11/23 12:10:12;;;;;;;;;;;10.90;99.90;;;;;;4992401;28;25128;-72
2022/11/23 12:12:38;;;;;;;14.23;1.73;;;10.80;99.90;;;;;;4988178;28;25082;-73
2022/11/23 12:15:05;;;;;;;9.45;1.58;;;10.50;99.90;;;;;;4989623;28;25073;-74
2022/11/23 12:17:48;;;;;;;5.13;1.23;;;10.50;99.90;;;;;;5006185;28;25068;-73
2022/11/23 12:20:41;;;;;;;7.65;1.58;;;10.40;99.90;;;;;;4980751;28;25100;-73
2022/11/23 12:23:33;;;;;;;5.75;1.50;;;10.40;99.90;;;;;;4991513;28;25100;-73
2022/11/23 12:26:04;;;;;;;3.47;1.30;;;10.30;99.90;;;;;;4986568;28;25080;-74
2022/11/23 12:28:56;;;;;;;7.40;1.40;;;10.30;99.90;;;;;;5008164;28;25077;-72
2022/11/23 12:31:42;;;;;;;6.00;1.27;;;10.30;99.90;;;;;;4982763;28;25062;-73
2022/11/23 12:34:40;;;;;;;3.53;1.02;;;10.30;99.90;;;;;;4982021;28;25144;-72
2022/11/23 12:37:18;;;;;;;5.38;1.30;;;10.30;99.90;;;;;;4991179;28;25117;-74
2022/11/23 12:40:01;;;;;;;8.60;1.60;;;10.40;99.90;;;;;;4989909;28;25109;-73
2022/11/23 12:42:47;;;;;;;7.15;1.60;;;10.40;99.90;;;;;;5002069;28;25057;-73
2022/11/23 12:45:22;;;;;;;3.92;1.15;;;10.40;99.90;;;;;;4982580;28;25129;-77
2022/11/23 12:48:14;;;;;;;7.68;2.70;;;10.30;99.90;;;;;;4992717;28;25059;-74
2022/11/23 12:51:11;;;;;;;6.70;1.42;;;10.40;99.90;;;;;;4987481;28;25051;-73